sensor_id;sensor_type;location;lat;lon;timestamp;P1;durP1;ratioP1;P2;durP2;ratioP2
9102;SDS011;4587;51.434;6.788;2024-01-15T00:01:13;36.40;;;22.90;;
9102;SDS011;4587;51.434;6.788;2024-01-15T00:03:39;36.37;;;23.80;;
9102;SDS011;4587;51.434;6.788;2024-01-15T00:06:05;35.90;;;22.73;;
9102;SDS011;4587;51.434;6.788;2024-01-15T00:08:30;37.63;;;22.77;;
9102;SDS011;4587;51.434;6.788;2024-01-15T00:10:56;35.27;;;23.20;;
9102;SDS011;4587;51.434;6.788;2024-01-15T00:13:21;36.10;;;22.37;;
9102;SDS011;4587;51.434;6.788;2024-01-15T00:15:47;36.90;;;22.37;;
9102;SDS011;4587;51.434;6.788;2024-01-15T00:18:13;34.90;;;22.27;;
9102;SDS011;4587;51.434;6.788;2024-01-15T00:20:38;35.53;;;22.73;;
9102;SDS011;4587;51.434;6.788;2024-01-15T00:23:04;35.07;;;22.07;;
9102;SDS011;4587;51.434;6.788;2024-01-15T00:25:29;32.67;;;22.77;;
9102;SDS011;4587;51.434;6.788;2024-01-15T00:27:55;33.00;;;21.23;;
9102;SDS011;4587;51.434;6.788;2024-01-15T00:30:20;33.50;;;21.50;;
9102;SDS011;4587;51.434;6.788;2024-01-15T00:32:46;30.50;;;20.43;;
9102;SDS011;4587;51.434;6.788;2024-01-15T00:37:47;29.53;;;20.23;;
9102;SDS011;4587;51.434;6.788;2024-01-15T00:40:12;28.67;;;20.33;;
9102;SDS011;4587;51.434;6.788;2024-01-15T00:42:38;29.23;;;19.60;;
9102;SDS011;4587;51.434;6.788;2024-01-15T00:45:04;28.30;;;18.57;;
9102;SDS011;4587;51.434;6.788;2024-01-15T00:47:30;29.70;;;20.20;;
9102;SDS011;4587;51.434;6.788;2024-01-15T00:49:56;28.53;;;20.03;;
9102;SDS011;4587;51.434;6.788;2024-01-15T00:52:21;30.07;;;20.67;;
9102;SDS011;4587;51.434;6.788;2024-01-15T00:54:47;28.13;;;19.57;;
9102;SDS011;4587;51.434;6.788;2024-01-15T00:57:12;29.13;;;19.70;;
9102;SDS011;4587;51.434;6.788;2024-01-15T00:59:38;28.53;;;19.40;;
9102;SDS011;4587;51.434;6.788;2024-01-15T01:02:04;28.60;;;19.63;;
9102;SDS011;4587;51.434;6.788;2024-01-15T01:04:29;27.80;;;19.20;;
9102;SDS011;4587;51.434;6.788;2024-01-15T01:06:55;30.77;;;19.73;;
9102;SDS011;4587;51.434;6.788;2024-01-15T01:09:20;29.70;;;19.43;;
9102;SDS011;4587;51.434;6.788;2024-01-15T01:11:46;27.00;;;18.57;;
9102;SDS011;4587;51.434;6.788;2024-01-15T01:14:11;28.13;;;19.07;;
9102;SDS011;4587;51.434;6.788;2024-01-15T01:16:37;29.73;;;19.97;;
9102;SDS011;4587;51.434;6.788;2024-01-15T01:19:04;25.77;;;19.10;;
9102;SDS011;4587;51.434;6.788;2024-01-15T01:21:31;28.17;;;19.33;;
9102;SDS011;4587;51.434;6.788;2024-01-15T01:23:57;29.63;;;19.97;;
9102;SDS011;4587;51.434;6.788;2024-01-15T01:26:22;27.10;;;20.13;;
9102;SDS011;4587;51.434;6.788;2024-01-15T01:28:48;28.57;;;20.00;;
9102;SDS011;4587;51.434;6.788;2024-01-15T01:31:13;26.43;;;18.80;;
9102;SDS011;4587;51.434;6.788;2024-01-15T01:33:39;26.50;;;19.80;;
9102;SDS011;4587;51.434;6.788;2024-01-15T01:36:10;28.30;;;19.47;;
9102;SDS011;4587;51.434;6.788;2024-01-15T01:38:36;30.80;;;20.27;;
9102;SDS011;4587;51.434;6.788;2024-01-15T01:41:02;28.33;;;19.53;;
9102;SDS011;4587;51.434;6.788;2024-01-15T01:43:28;29.30;;;19.43;;
9102;SDS011;4587;51.434;6.788;2024-01-15T01:45:54;26.97;;;20.17;;
9102;SDS011;4587;51.434;6.788;2024-01-15T01:48:21;30.90;;;19.27;;
9102;SDS011;4587;51.434;6.788;2024-01-15T01:50:50;26.07;;;18.27;;
9102;SDS011;4587;51.434;6.788;2024-01-15T01:53:15;23.97;;;18.13;;
9102;SDS011;4587;51.434;6.788;2024-01-15T01:55:41;27.03;;;17.97;;
9102;SDS011;4587;51.434;6.788;2024-01-15T01:58:07;23.77;;;17.17;;
9102;SDS011;4587;51.434;6.788;2024-01-15T02:00:32;27.37;;;17.60;;
9102;SDS011;4587;51.434;6.788;2024-01-15T02:03:00;26.10;;;17.20;;
9102;SDS011;4587;51.434;6.788;2024-01-15T02:05:25;25.13;;;17.30;;
9102;SDS011;4587;51.434;6.788;2024-01-15T02:07:52;27.10;;;16.47;;
9102;SDS011;4587;51.434;6.788;2024-01-15T02:10:18;24.53;;;16.13;;
9102;SDS011;4587;51.434;6.788;2024-01-15T02:12:43;25.27;;;16.30;;
9102;SDS011;4587;51.434;6.788;2024-01-15T02:15:09;23.43;;;16.40;;
9102;SDS011;4587;51.434;6.788;2024-01-15T02:17:35;23.23;;;16.20;;
9102;SDS011;4587;51.434;6.788;2024-01-15T02:20:20;25.50;;;16.37;;
9102;SDS011;4587;51.434;6.788;2024-01-15T02:22:46;25.23;;;16.23;;
9102;SDS011;4587;51.434;6.788;2024-01-15T02:25:11;25.97;;;16.00;;
9102;SDS011;4587;51.434;6.788;2024-01-15T02:27:37;23.97;;;16.07;;
9102;SDS011;4587;51.434;6.788;2024-01-15T02:30:03;21.60;;;14.97;;
9102;SDS011;4587;51.434;6.788;2024-01-15T02:32:30;23.23;;;15.27;;
9102;SDS011;4587;51.434;6.788;2024-01-15T02:34:55;20.90;;;14.67;;
9102;SDS011;4587;51.434;6.788;2024-01-15T02:37:21;21.10;;;14.20;;
9102;SDS011;4587;51.434;6.788;2024-01-15T02:39:46;20.93;;;14.00;;
9102;SDS011;4587;51.434;6.788;2024-01-15T02:42:12;22.03;;;13.90;;
9102;SDS011;4587;51.434;6.788;2024-01-15T02:44:37;19.50;;;12.80;;
9102;SDS011;4587;51.434;6.788;2024-01-15T02:47:03;20.60;;;12.20;;
9102;SDS011;4587;51.434;6.788;2024-01-15T02:49:28;19.37;;;13.70;;
9102;SDS011;4587;51.434;6.788;2024-01-15T02:51:54;21.30;;;12.93;;
9102;SDS011;4587;51.434;6.788;2024-01-15T02:54:19;20.33;;;12.20;;
9102;SDS011;4587;51.434;6.788;2024-01-15T02:56:45;20.73;;;12.13;;
9102;SDS011;4587;51.434;6.788;2024-01-15T02:59:10;20.70;;;12.17;;
9102;SDS011;4587;51.434;6.788;2024-01-15T03:01:36;16.60;;;11.53;;
9102;SDS011;4587;51.434;6.788;2024-01-15T03:04:01;19.00;;;11.90;;
9102;SDS011;4587;51.434;6.788;2024-01-15T03:06:27;16.90;;;11.60;;
9102;SDS011;4587;51.434;6.788;2024-01-15T03:08:52;16.60;;;10.60;;
9102;SDS011;4587;51.434;6.788;2024-01-15T03:11:18;15.70;;;10.13;;
9102;SDS011;4587;51.434;6.788;2024-01-15T03:13:43;18.17;;;10.53;;
9102;SDS011;4587;51.434;6.788;2024-01-15T03:16:09;15.10;;;10.17;;
9102;SDS011;4587;51.434;6.788;2024-01-15T03:18:35;15.63;;;9.37;;
9102;SDS011;4587;51.434;6.788;2024-01-15T03:21:01;18.07;;;10.50;;
9102;SDS011;4587;51.434;6.788;2024-01-15T03:23:26;15.90;;;9.70;;
9102;SDS011;4587;51.434;6.788;2024-01-15T03:25:52;13.40;;;9.63;;
9102;SDS011;4587;51.434;6.788;2024-01-15T03:28:17;16.53;;;9.97;;
9102;SDS011;4587;51.434;6.788;2024-01-15T03:30:43;15.87;;;9.87;;
9102;SDS011;4587;51.434;6.788;2024-01-15T03:33:08;15.47;;;9.63;;
9102;SDS011;4587;51.434;6.788;2024-01-15T03:35:34;15.07;;;10.17;;
9102;SDS011;4587;51.434;6.788;2024-01-15T03:37:59;17.10;;;9.90;;
9102;SDS011;4587;51.434;6.788;2024-01-15T03:40:25;16.53;;;10.37;;
9102;SDS011;4587;51.434;6.788;2024-01-15T03:42:50;14.57;;;9.53;;
9102;SDS011;4587;51.434;6.788;2024-01-15T03:45:16;16.83;;;10.87;;
9102;SDS011;4587;51.434;6.788;2024-01-15T03:47:41;14.90;;;10.33;;
9102;SDS011;4587;51.434;6.788;2024-01-15T03:50:07;15.00;;;11.30;;
9102;SDS011;4587;51.434;6.788;2024-01-15T03:52:33;20.57;;;12.30;;
9102;SDS011;4587;51.434;6.788;2024-01-15T03:54:58;17.30;;;11.50;;
9102;SDS011;4587;51.434;6.788;2024-01-15T03:57:24;19.43;;;11.80;;
9102;SDS011;4587;51.434;6.788;2024-01-15T03:59:49;17.33;;;12.80;;
9102;SDS011;4587;51.434;6.788;2024-01-15T04:02:15;16.00;;;12.80;;
9102;SDS011;4587;51.434;6.788;2024-01-15T04:04:41;17.77;;;12.90;;
9102;SDS011;4587;51.434;6.788;2024-01-15T04:07:08;20.20;;;13.80;;
9102;SDS011;4587;51.434;6.788;2024-01-15T04:09:34;21.60;;;12.83;;
9102;SDS011;4587;51.434;6.788;2024-01-15T04:12:00;19.17;;;12.97;;
9102;SDS011;4587;51.434;6.788;2024-01-15T04:14:25;21.00;;;13.80;;
9102;SDS011;4587;51.434;6.788;2024-01-15T04:16:51;17.70;;;13.43;;
9102;SDS011;4587;51.434;6.788;2024-01-15T04:19:16;17.20;;;13.37;;
9102;SDS011;4587;51.434;6.788;2024-01-15T04:21:42;21.17;;;13.80;;
9102;SDS011;4587;51.434;6.788;2024-01-15T04:24:07;16.13;;;12.80;;
9102;SDS011;4587;51.434;6.788;2024-01-15T04:26:33;19.83;;;12.97;;
9102;SDS011;4587;51.434;6.788;2024-01-15T04:28:58;19.53;;;12.80;;
9102;SDS011;4587;51.434;6.788;2024-01-15T04:31:24;19.00;;;13.07;;
9102;SDS011;4587;51.434;6.788;2024-01-15T04:33:51;19.30;;;12.80;;
9102;SDS011;4587;51.434;6.788;2024-01-15T04:36:17;16.40;;;12.30;;
9102;SDS011;4587;51.434;6.788;2024-01-15T04:38:43;17.93;;;11.40;;
9102;SDS011;4587;51.434;6.788;2024-01-15T04:41:14;16.67;;;11.53;;
9102;SDS011;4587;51.434;6.788;2024-01-15T04:43:41;15.43;;;11.10;;
9102;SDS011;4587;51.434;6.788;2024-01-15T04:46:07;17.30;;;11.80;;
9102;SDS011;4587;51.434;6.788;2024-01-15T04:48:32;16.43;;;10.60;;
9102;SDS011;4587;51.434;6.788;2024-01-15T04:50:58;14.80;;;10.53;;
9102;SDS011;4587;51.434;6.788;2024-01-15T04:53:24;14.80;;;10.63;;
9102;SDS011;4587;51.434;6.788;2024-01-15T04:55:50;14.13;;;10.47;;
9102;SDS011;4587;51.434;6.788;2024-01-15T04:58:15;17.33;;;10.77;;
9102;SDS011;4587;51.434;6.788;2024-01-15T05:00:41;14.17;;;10.80;;
9102;SDS011;4587;51.434;6.788;2024-01-15T05:03:06;16.50;;;10.57;;
9102;SDS011;4587;51.434;6.788;2024-01-15T05:05:32;15.27;;;10.43;;
9102;SDS011;4587;51.434;6.788;2024-01-15T05:07:57;15.87;;;10.63;;
9102;SDS011;4587;51.434;6.788;2024-01-15T05:10:23;13.13;;;10.57;;
9102;SDS011;4587;51.434;6.788;2024-01-15T05:12:48;15.03;;;10.57;;
9102;SDS011;4587;51.434;6.788;2024-01-15T05:15:14;14.77;;;10.83;;
9102;SDS011;4587;51.434;6.788;2024-01-15T05:17:39;17.00;;;10.83;;
9102;SDS011;4587;51.434;6.788;2024-01-15T05:20:05;14.83;;;10.83;;
9102;SDS011;4587;51.434;6.788;2024-01-15T05:22:32;14.83;;;11.10;;
9102;SDS011;4587;51.434;6.788;2024-01-15T05:24:57;15.87;;;10.30;;
9102;SDS011;4587;51.434;6.788;2024-01-15T05:27:24;16.77;;;10.17;;
9102;SDS011;4587;51.434;6.788;2024-01-15T05:29:50;15.57;;;10.20;;
9102;SDS011;4587;51.434;6.788;2024-01-15T05:32:15;13.90;;;10.07;;
9102;SDS011;4587;51.434;6.788;2024-01-15T05:34:41;13.23;;;9.53;;
9102;SDS011;4587;51.434;6.788;2024-01-15T05:37:06;15.87;;;10.20;;
9102;SDS011;4587;51.434;6.788;2024-01-15T05:39:32;15.53;;;10.10;;
9102;SDS011;4587;51.434;6.788;2024-01-15T05:41:58;13.03;;;9.57;;
9102;SDS011;4587;51.434;6.788;2024-01-15T05:44:24;13.67;;;9.37;;
9102;SDS011;4587;51.434;6.788;2024-01-15T05:46:50;14.33;;;9.77;;
9102;SDS011;4587;51.434;6.788;2024-01-15T05:49:15;14.73;;;9.43;;
9102;SDS011;4587;51.434;6.788;2024-01-15T05:51:41;15.30;;;9.03;;
9102;SDS011;4587;51.434;6.788;2024-01-15T05:54:06;14.87;;;9.00;;
9102;SDS011;4587;51.434;6.788;2024-01-15T05:56:32;13.23;;;9.57;;
9102;SDS011;4587;51.434;6.788;2024-01-15T05:58:57;14.73;;;9.20;;
9102;SDS011;4587;51.434;6.788;2024-01-15T06:01:23;15.27;;;8.63;;
9102;SDS011;4587;51.434;6.788;2024-01-15T06:03:48;15.07;;;8.40;;
9102;SDS011;4587;51.434;6.788;2024-01-15T06:06:14;13.23;;;7.90;;
9102;SDS011;4587;51.434;6.788;2024-01-15T06:08:39;14.33;;;8.07;;
9102;SDS011;4587;51.434;6.788;2024-01-15T06:11:06;14.87;;;7.77;;
9102;SDS011;4587;51.434;6.788;2024-01-15T06:13:31;9.90;;;6.90;;
9102;SDS011;4587;51.434;6.788;2024-01-15T06:15:57;11.50;;;7.20;;
9102;SDS011;4587;51.434;6.788;2024-01-15T06:18:22;10.77;;;6.97;;
9102;SDS011;4587;51.434;6.788;2024-01-15T06:20:48;11.60;;;6.90;;
9102;SDS011;4587;51.434;6.788;2024-01-15T06:23:14;11.70;;;7.50;;
9102;SDS011;4587;51.434;6.788;2024-01-15T06:25:39;10.00;;;6.70;;
9102;SDS011;4587;51.434;6.788;2024-01-15T06:28:05;10.67;;;6.43;;
9102;SDS011;4587;51.434;6.788;2024-01-15T06:30:31;11.13;;;6.10;;
9102;SDS011;4587;51.434;6.788;2024-01-15T06:32:56;8.73;;;5.40;;
9102;SDS011;4587;51.434;6.788;2024-01-15T06:35:22;8.43;;;5.53;;
9102;SDS011;4587;51.434;6.788;2024-01-15T06:37:47;7.47;;;4.90;;
9102;SDS011;4587;51.434;6.788;2024-01-15T06:40:13;9.40;;;4.77;;
9102;SDS011;4587;51.434;6.788;2024-01-15T06:42:38;8.57;;;4.77;;
9102;SDS011;4587;51.434;6.788;2024-01-15T06:45:04;6.43;;;4.30;;
9102;SDS011;4587;51.434;6.788;2024-01-15T06:47:30;6.67;;;3.70;;
9102;SDS011;4587;51.434;6.788;2024-01-15T06:49:57;7.23;;;4.07;;
9102;SDS011;4587;51.434;6.788;2024-01-15T06:52:23;5.97;;;3.67;;
9102;SDS011;4587;51.434;6.788;2024-01-15T06:54:49;8.00;;;3.90;;
9102;SDS011;4587;51.434;6.788;2024-01-15T06:57:14;7.33;;;3.63;;
9102;SDS011;4587;51.434;6.788;2024-01-15T06:59:40;6.87;;;3.33;;
9102;SDS011;4587;51.434;6.788;2024-01-15T07:02:05;5.73;;;3.23;;
9102;SDS011;4587;51.434;6.788;2024-01-15T07:04:31;6.70;;;3.47;;
9102;SDS011;4587;51.434;6.788;2024-01-15T07:06:56;6.40;;;2.80;;
9102;SDS011;4587;51.434;6.788;2024-01-15T07:09:22;4.30;;;3.03;;
9102;SDS011;4587;51.434;6.788;2024-01-15T07:11:48;3.63;;;2.83;;
9102;SDS011;4587;51.434;6.788;2024-01-15T07:14:13;3.77;;;2.80;;
9102;SDS011;4587;51.434;6.788;2024-01-15T07:16:39;7.33;;;3.37;;
9102;SDS011;4587;51.434;6.788;2024-01-15T07:19:04;5.77;;;3.40;;
9102;SDS011;4587;51.434;6.788;2024-01-15T07:21:30;5.77;;;3.20;;
9102;SDS011;4587;51.434;6.788;2024-01-15T07:23:56;4.73;;;3.33;;
9102;SDS011;4587;51.434;6.788;2024-01-15T07:26:22;4.80;;;3.67;;
9102;SDS011;4587;51.434;6.788;2024-01-15T07:28:47;6.70;;;3.63;;
9102;SDS011;4587;51.434;6.788;2024-01-15T07:31:13;7.60;;;3.73;;
9102;SDS011;4587;51.434;6.788;2024-01-15T07:33:40;6.93;;;4.00;;
9102;SDS011;4587;51.434;6.788;2024-01-15T07:36:06;8.47;;;4.00;;
9102;SDS011;4587;51.434;6.788;2024-01-15T07:38:32;6.30;;;4.53;;
9102;SDS011;4587;51.434;6.788;2024-01-15T07:40:57;7.47;;;4.23;;
9102;SDS011;4587;51.434;6.788;2024-01-15T07:43:23;11.17;;;6.40;;
9102;SDS011;4587;51.434;6.788;2024-01-15T07:45:49;10.40;;;6.70;;
9102;SDS011;4587;51.434;6.788;2024-01-15T07:48:14;9.87;;;7.17;;
9102;SDS011;4587;51.434;6.788;2024-01-15T07:50:40;15.10;;;8.27;;
9102;SDS011;4587;51.434;6.788;2024-01-15T07:53:05;14.10;;;9.63;;
9102;SDS011;4587;51.434;6.788;2024-01-15T07:55:31;12.43;;;9.60;;
9102;SDS011;4587;51.434;6.788;2024-01-15T07:57:57;13.43;;;10.13;;
9102;SDS011;4587;51.434;6.788;2024-01-15T08:00:24;12.63;;;10.63;;
9102;SDS011;4587;51.434;6.788;2024-01-15T08:02:50;15.73;;;11.27;;
9102;SDS011;4587;51.434;6.788;2024-01-15T08:05:16;13.27;;;11.00;;
9102;SDS011;4587;51.434;6.788;2024-01-15T08:07:41;12.83;;;10.97;;
9102;SDS011;4587;51.434;6.788;2024-01-15T08:10:07;14.50;;;10.97;;
9102;SDS011;4587;51.434;6.788;2024-01-15T08:12:33;12.23;;;10.93;;
9102;SDS011;4587;51.434;6.788;2024-01-15T08:14:58;13.23;;;10.97;;
9102;SDS011;4587;51.434;6.788;2024-01-15T08:17:24;12.47;;;10.60;;
9102;SDS011;4587;51.434;6.788;2024-01-15T08:19:53;12.47;;;10.83;;
9102;SDS011;4587;51.434;6.788;2024-01-15T08:22:19;11.90;;;10.53;;
9102;SDS011;4587;51.434;6.788;2024-01-15T08:24:45;11.93;;;10.40;;
9102;SDS011;4587;51.434;6.788;2024-01-15T08:27:10;13.20;;;10.87;;
9102;SDS011;4587;51.434;6.788;2024-01-15T08:29:36;11.13;;;10.10;;
9102;SDS011;4587;51.434;6.788;2024-01-15T08:32:01;12.27;;;10.27;;
9102;SDS011;4587;51.434;6.788;2024-01-15T08:34:27;10.57;;;9.47;;
9102;SDS011;4587;51.434;6.788;2024-01-15T08:36:52;11.33;;;10.23;;
9102;SDS011;4587;51.434;6.788;2024-01-15T08:39:18;11.17;;;9.97;;
9102;SDS011;4587;51.434;6.788;2024-01-15T08:41:44;10.77;;;9.57;;
9102;SDS011;4587;51.434;6.788;2024-01-15T08:44:11;9.77;;;8.80;;
9102;SDS011;4587;51.434;6.788;2024-01-15T08:46:37;10.37;;;8.97;;
9102;SDS011;4587;51.434;6.788;2024-01-15T08:49:02;10.53;;;8.97;;
9102;SDS011;4587;51.434;6.788;2024-01-15T08:51:28;10.13;;;8.43;;
9102;SDS011;4587;51.434;6.788;2024-01-15T08:53:54;9.83;;;8.63;;
9102;SDS011;4587;51.434;6.788;2024-01-15T08:56:20;9.10;;;8.20;;
9102;SDS011;4587;51.434;6.788;2024-01-15T08:58:45;9.50;;;8.50;;
9102;SDS011;4587;51.434;6.788;2024-01-15T09:01:11;9.40;;;8.50;;
9102;SDS011;4587;51.434;6.788;2024-01-15T09:03:36;8.60;;;7.80;;
9102;SDS011;4587;51.434;6.788;2024-01-15T09:06:02;8.77;;;7.87;;
9102;SDS011;4587;51.434;6.788;2024-01-15T09:08:28;9.70;;;8.03;;
9102;SDS011;4587;51.434;6.788;2024-01-15T09:10:53;8.93;;;8.03;;
9102;SDS011;4587;51.434;6.788;2024-01-15T09:13:19;9.13;;;8.33;;
9102;SDS011;4587;51.434;6.788;2024-01-15T09:15:44;8.70;;;7.80;;
9102;SDS011;4587;51.434;6.788;2024-01-15T09:18:10;8.87;;;7.97;;
9102;SDS011;4587;51.434;6.788;2024-01-15T09:20:36;7.80;;;7.10;;
9102;SDS011;4587;51.434;6.788;2024-01-15T09:23:01;8.67;;;7.30;;
9102;SDS011;4587;51.434;6.788;2024-01-15T09:25:27;7.57;;;6.87;;
9102;SDS011;4587;51.434;6.788;2024-01-15T09:27:53;6.87;;;6.27;;
9102;SDS011;4587;51.434;6.788;2024-01-15T09:30:18;6.33;;;5.53;;
9102;SDS011;4587;51.434;6.788;2024-01-15T09:32:44;6.27;;;5.67;;
9102;SDS011;4587;51.434;6.788;2024-01-15T09:35:09;5.70;;;5.20;;
9102;SDS011;4587;51.434;6.788;2024-01-15T09:37:35;6.40;;;5.60;;
9102;SDS011;4587;51.434;6.788;2024-01-15T09:40:02;6.73;;;5.57;;
9102;SDS011;4587;51.434;6.788;2024-01-15T09:42:28;5.30;;;4.80;;
9102;SDS011;4587;51.434;6.788;2024-01-15T09:44:54;5.87;;;5.07;;
9102;SDS011;4587;51.434;6.788;2024-01-15T09:47:20;5.60;;;5.10;;
9102;SDS011;4587;51.434;6.788;2024-01-15T09:49:47;5.63;;;4.47;;
9102;SDS011;4587;51.434;6.788;2024-01-15T09:52:12;5.00;;;4.40;;
9102;SDS011;4587;51.434;6.788;2024-01-15T09:54:42;4.67;;;3.87;;
9102;SDS011;4587;51.434;6.788;2024-01-15T09:57:08;5.53;;;3.70;;
9102;SDS011;4587;51.434;6.788;2024-01-15T09:59:34;6.10;;;3.90;;
9102;SDS011;4587;51.434;6.788;2024-01-15T10:02:02;4.40;;;3.80;;
9102;SDS011;4587;51.434;6.788;2024-01-15T10:04:28;4.40;;;4.00;;
9102;SDS011;4587;51.434;6.788;2024-01-15T10:06:54;5.37;;;3.70;;
9102;SDS011;4587;51.434;6.788;2024-01-15T10:09:21;6.87;;;3.90;;
9102;SDS011;4587;51.434;6.788;2024-01-15T10:11:46;5.80;;;4.10;;
9102;SDS011;4587;51.434;6.788;2024-01-15T10:14:12;4.33;;;3.93;;
9102;SDS011;4587;51.434;6.788;2024-01-15T10:16:38;6.90;;;4.00;;
9102;SDS011;4587;51.434;6.788;2024-01-15T10:19:04;4.53;;;4.13;;
9102;SDS011;4587;51.434;6.788;2024-01-15T10:21:33;4.37;;;3.50;;
9102;SDS011;4587;51.434;6.788;2024-01-15T10:24:02;3.93;;;3.63;;
9102;SDS011;4587;51.434;6.788;2024-01-15T10:26:29;4.60;;;3.73;;
9102;SDS011;4587;51.434;6.788;2024-01-15T10:28:55;7.10;;;3.27;;
9102;SDS011;4587;51.434;6.788;2024-01-15T10:31:21;4.00;;;3.60;;
9102;SDS011;4587;51.434;6.788;2024-01-15T10:33:47;8.07;;;4.23;;
9102;SDS011;4587;51.434;6.788;2024-01-15T10:36:14;5.83;;;4.00;;
9102;SDS011;4587;51.434;6.788;2024-01-15T10:38:41;4.73;;;3.70;;
9102;SDS011;4587;51.434;6.788;2024-01-15T10:41:08;5.83;;;4.30;;
9102;SDS011;4587;51.434;6.788;2024-01-15T10:43:33;3.90;;;3.50;;
9102;SDS011;4587;51.434;6.788;2024-01-15T10:45:59;3.73;;;3.30;;
9102;SDS011;4587;51.434;6.788;2024-01-15T10:48:25;3.97;;;3.40;;
9102;SDS011;4587;51.434;6.788;2024-01-15T10:50:53;4.40;;;4.00;;
9102;SDS011;4587;51.434;6.788;2024-01-15T10:53:19;5.87;;;3.80;;
9102;SDS011;4587;51.434;6.788;2024-01-15T10:55:46;6.23;;;4.00;;
9102;SDS011;4587;51.434;6.788;2024-01-15T10:58:13;5.40;;;3.83;;
9102;SDS011;4587;51.434;6.788;2024-01-15T11:00:40;4.43;;;3.93;;
9102;SDS011;4587;51.434;6.788;2024-01-15T11:03:06;5.27;;;3.77;;
9102;SDS011;4587;51.434;6.788;2024-01-15T11:05:37;4.17;;;3.77;;
9102;SDS011;4587;51.434;6.788;2024-01-15T11:08:09;4.70;;;4.20;;
9102;SDS011;4587;51.434;6.788;2024-01-15T11:10:44;4.07;;;3.73;;
9102;SDS011;4587;51.434;6.788;2024-01-15T11:13:20;6.60;;;4.30;;
9102;SDS011;4587;51.434;6.788;2024-01-15T11:18:37;4.20;;;3.80;;
9102;SDS011;4587;51.434;6.788;2024-01-15T11:23:45;5.23;;;3.77;;
9102;SDS011;4587;51.434;6.788;2024-01-15T11:29:04;5.23;;;4.00;;
9102;SDS011;4587;51.434;6.788;2024-01-15T11:34:09;4.30;;;3.77;;
9102;SDS011;4587;51.434;6.788;2024-01-15T11:41:57;4.83;;;3.03;;
9102;SDS011;4587;51.434;6.788;2024-01-15T11:44:24;5.67;;;3.53;;
9102;SDS011;4587;51.434;6.788;2024-01-15T11:49:53;5.10;;;3.50;;
9102;SDS011;4587;51.434;6.788;2024-01-15T11:52:26;4.90;;;3.33;;
9102;SDS011;4587;51.434;6.788;2024-01-15T11:57:52;5.90;;;3.40;;
9102;SDS011;4587;51.434;6.788;2024-01-15T12:00:19;7.37;;;3.20;;
9102;SDS011;4587;51.434;6.788;2024-01-15T12:02:47;6.40;;;3.30;;
9102;SDS011;4587;51.434;6.788;2024-01-15T12:05:14;5.73;;;3.30;;
9102;SDS011;4587;51.434;6.788;2024-01-15T12:07:41;7.33;;;3.77;;
9102;SDS011;4587;51.434;6.788;2024-01-15T12:10:08;4.97;;;2.90;;
9102;SDS011;4587;51.434;6.788;2024-01-15T12:15:18;7.13;;;2.70;;
9102;SDS011;4587;51.434;6.788;2024-01-15T12:17:44;6.33;;;2.20;;
9102;SDS011;4587;51.434;6.788;2024-01-15T12:20:10;4.97;;;2.17;;
9102;SDS011;4587;51.434;6.788;2024-01-15T12:22:37;9.27;;;2.90;;
9102;SDS011;4587;51.434;6.788;2024-01-15T12:25:03;8.67;;;2.67;;
9102;SDS011;4587;51.434;6.788;2024-01-15T12:27:28;5.33;;;1.90;;
9102;SDS011;4587;51.434;6.788;2024-01-15T12:29:54;3.67;;;1.90;;
9102;SDS011;4587;51.434;6.788;2024-01-15T12:32:20;7.80;;;2.30;;
9102;SDS011;4587;51.434;6.788;2024-01-15T12:34:46;5.47;;;2.07;;
9102;SDS011;4587;51.434;6.788;2024-01-15T12:37:14;4.87;;;1.90;;
9102;SDS011;4587;51.434;6.788;2024-01-15T12:39:42;5.07;;;2.30;;
9102;SDS011;4587;51.434;6.788;2024-01-15T12:42:09;5.67;;;2.07;;
9102;SDS011;4587;51.434;6.788;2024-01-15T12:44:35;6.30;;;1.80;;
9102;SDS011;4587;51.434;6.788;2024-01-15T12:47:03;7.87;;;2.30;;
9102;SDS011;4587;51.434;6.788;2024-01-15T12:49:29;3.60;;;2.20;;
9102;SDS011;4587;51.434;6.788;2024-01-15T12:51:56;5.30;;;2.67;;
9102;SDS011;4587;51.434;6.788;2024-01-15T12:54:22;4.03;;;2.60;;
9102;SDS011;4587;51.434;6.788;2024-01-15T12:56:51;5.83;;;2.40;;
9102;SDS011;4587;51.434;6.788;2024-01-15T12:59:17;3.80;;;2.60;;
9102;SDS011;4587;51.434;6.788;2024-01-15T13:01:43;5.33;;;2.60;;
9102;SDS011;4587;51.434;6.788;2024-01-15T13:04:10;4.57;;;2.83;;
9102;SDS011;4587;51.434;6.788;2024-01-15T13:06:35;7.23;;;2.80;;
9102;SDS011;4587;51.434;6.788;2024-01-15T13:09:02;8.50;;;3.20;;
9102;SDS011;4587;51.434;6.788;2024-01-15T13:11:32;4.67;;;2.83;;
9102;SDS011;4587;51.434;6.788;2024-01-15T13:13:58;4.60;;;2.90;;
9102;SDS011;4587;51.434;6.788;2024-01-15T13:16:24;5.60;;;3.10;;
9102;SDS011;4587;51.434;6.788;2024-01-15T13:18:52;4.90;;;3.00;;
9102;SDS011;4587;51.434;6.788;2024-01-15T13:21:17;6.40;;;3.13;;
9102;SDS011;4587;51.434;6.788;2024-01-15T13:23:43;5.10;;;3.37;;
9102;SDS011;4587;51.434;6.788;2024-01-15T13:26:08;5.93;;;3.10;;
9102;SDS011;4587;51.434;6.788;2024-01-15T13:28:34;7.47;;;3.30;;
9102;SDS011;4587;51.434;6.788;2024-01-15T13:31:00;7.87;;;3.60;;
9102;SDS011;4587;51.434;6.788;2024-01-15T13:33:25;5.83;;;3.30;;
9102;SDS011;4587;51.434;6.788;2024-01-15T13:35:51;5.90;;;4.03;;
9102;SDS011;4587;51.434;6.788;2024-01-15T13:38:16;6.43;;;3.70;;
9102;SDS011;4587;51.434;6.788;2024-01-15T13:40:43;7.03;;;3.40;;
9102;SDS011;4587;51.434;6.788;2024-01-15T13:43:10;6.87;;;3.30;;
9102;SDS011;4587;51.434;6.788;2024-01-15T13:45:36;5.33;;;2.80;;
9102;SDS011;4587;51.434;6.788;2024-01-15T13:48:02;6.70;;;3.13;;
9102;SDS011;4587;51.434;6.788;2024-01-15T13:50:31;7.13;;;3.10;;
9102;SDS011;4587;51.434;6.788;2024-01-15T13:52:57;4.77;;;2.70;;
9102;SDS011;4587;51.434;6.788;2024-01-15T13:55:22;3.97;;;2.40;;
9102;SDS011;4587;51.434;6.788;2024-01-15T13:57:48;3.57;;;2.50;;
9102;SDS011;4587;51.434;6.788;2024-01-15T14:00:13;4.57;;;2.23;;
9102;SDS011;4587;51.434;6.788;2024-01-15T14:02:43;6.13;;;2.33;;
9102;SDS011;4587;51.434;6.788;2024-01-15T14:05:09;3.17;;;2.07;;
9102;SDS011;4587;51.434;6.788;2024-01-15T14:07:37;3.83;;;1.87;;
9102;SDS011;4587;51.434;6.788;2024-01-15T14:10:04;3.20;;;1.50;;
9102;SDS011;4587;51.434;6.788;2024-01-15T14:12:30;5.33;;;1.90;;
9102;SDS011;4587;51.434;6.788;2024-01-15T14:14:56;2.30;;;1.57;;
9102;SDS011;4587;51.434;6.788;2024-01-15T14:17:22;3.33;;;2.03;;
9102;SDS011;4587;51.434;6.788;2024-01-15T14:19:48;3.90;;;1.93;;
9102;SDS011;4587;51.434;6.788;2024-01-15T14:22:14;4.97;;;2.40;;
9102;SDS011;4587;51.434;6.788;2024-01-15T14:24:39;4.47;;;1.97;;
9102;SDS011;4587;51.434;6.788;2024-01-15T14:27:05;2.53;;;1.70;;
9102;SDS011;4587;51.434;6.788;2024-01-15T14:29:32;2.90;;;1.80;;
9102;SDS011;4587;51.434;6.788;2024-01-15T14:31:57;3.30;;;1.87;;
9102;SDS011;4587;51.434;6.788;2024-01-15T14:34:24;10.47;;;2.27;;
9102;SDS011;4587;51.434;6.788;2024-01-15T14:36:51;2.53;;;1.57;;
9102;SDS011;4587;51.434;6.788;2024-01-15T14:39:18;3.33;;;2.13;;
9102;SDS011;4587;51.434;6.788;2024-01-15T14:41:44;5.17;;;2.10;;
9102;SDS011;4587;51.434;6.788;2024-01-15T14:44:11;3.20;;;1.60;;
9102;SDS011;4587;51.434;6.788;2024-01-15T14:46:37;2.87;;;1.70;;
9102;SDS011;4587;51.434;6.788;2024-01-15T14:49:03;4.00;;;1.70;;
9102;SDS011;4587;51.434;6.788;2024-01-15T14:51:28;4.07;;;1.83;;
9102;SDS011;4587;51.434;6.788;2024-01-15T14:53:54;4.40;;;2.00;;
9102;SDS011;4587;51.434;6.788;2024-01-15T14:56:19;5.50;;;2.10;;
9102;SDS011;4587;51.434;6.788;2024-01-15T14:58:45;2.93;;;1.80;;
9102;SDS011;4587;51.434;6.788;2024-01-15T15:01:11;4.53;;;2.13;;
9102;SDS011;4587;51.434;6.788;2024-01-15T15:03:37;4.73;;;2.10;;
9102;SDS011;4587;51.434;6.788;2024-01-15T15:06:03;6.30;;;2.20;;
9102;SDS011;4587;51.434;6.788;2024-01-15T15:08:28;2.30;;;2.03;;
9102;SDS011;4587;51.434;6.788;2024-01-15T15:10:54;5.43;;;2.20;;
9102;SDS011;4587;51.434;6.788;2024-01-15T15:13:21;3.90;;;2.20;;
9102;SDS011;4587;51.434;6.788;2024-01-15T15:15:47;4.23;;;2.70;;
9102;SDS011;4587;51.434;6.788;2024-01-15T15:18:13;3.90;;;2.77;;
9102;SDS011;4587;51.434;6.788;2024-01-15T15:20:39;3.20;;;2.43;;
9102;SDS011;4587;51.434;6.788;2024-01-15T15:23:05;5.03;;;2.50;;